Latest Weather Observations for PORTABLE BTSB (DFES)

IDW60801

Issued at 8:23 pm WST Wednesday 3 March 2021 (issued every 10 minutes, with the page automatically refreshed every 10 minutes)

About weather observations | Map of weather stations | Latest weather observations for WA | Other Formats
Station Details ID: 250117 Name: PORTABLE WA BTSB (DFES) Lat: -31.96 Lon: 116.69 Height: 20.0 m

Portable automatic weather stations (PAWS) are operated by other organisations, such as Fire and Emergency Services, and are included here by agreement. Portable stations may be deployed to a location for a short period and their location may be subject to change without notice. Wind observations from these stations are provided from heights of either three (3) or ten (10) metres above ground level (AGL).

Data from the previous 72 hours. | See also: Recent months for locations in Western Australia
Date/Time
WST
Temp
°C
App
Temp
°C
Dew
Point
°C
Rel
Hum
%
Delta-T
°C
Wind Press
QNH
hPa
Press
MSL
hPa
Rain since
9am
mm
Dir  Spd
km/h
Gust
km/h
Spd
kts
Gust
kts
03/05:30pm 23.3 23.9 20.2 83 2.0 ENE 17 20 9 11 - - 46.6
03/05:20pm 23.3 23.4 20.0 82 2.1 NE 19 20 10 11 - - 46.6
03/05:10pm 23.3 23.9 20.2 83 2.0 ENE 17 19 9 10 - - 46.6
03/05:00pm 23.4 24.0 20.2 82 2.1 NE 17 19 9 10 - - 46.6
03/04:50pm 23.4 23.5 19.9 81 2.3 NE 19 24 10 13 - - 46.6
03/04:40pm 23.3 22.8 19.9 81 2.2 NNE 22 24 12 13 - - 46.6
03/04:30pm 22.8 22.7 19.9 84 1.9 NNE 20 24 11 13 - - 46.6
03/04:20pm 22.4 22.7 20.5 89 1.2 NNE 19 22 10 12 - - 46.6
03/04:10pm 22.1 21.7 20.2 89 1.2 NE 22 26 12 14 - - 46.6
03/04:00pm 22.9 22.2 20.3 85 1.7 NNE 24 28 13 15 - - 45.6
03/03:50pm 22.8 22.3 19.9 84 1.9 NNE 22 28 12 15 - - 45.6
03/03:40pm 22.7 21.8 19.8 84 1.9 NE 24 28 13 15 - - 45.6
03/03:30pm 22.7 22.6 20.0 85 1.7 NE 20 24 11 13 - - 45.6
03/03:20pm 22.8 21.6 20.1 85 1.7 NE 26 30 14 16 - - 45.6
03/03:10pm 23.2 22.9 20.4 84 1.8 NNE 22 26 12 14 - - 45.6
03/03:00pm 23.1 23.1 20.2 84 1.9 NNE 20 24 11 13 - - 45.6
03/02:50pm 23.0 23.0 19.8 82 2.1 N 19 22 10 12 - - 45.6
03/02:40pm 23.0 22.9 19.5 80 2.2 N 19 22 10 12 - - 45.6
03/02:30pm 22.9 23.1 20.1 84 1.8 N 19 20 10 11 - - 45.6
03/02:20pm 22.5 22.1 20.2 87 1.5 NNE 22 26 12 14 - - 45.6
03/02:10pm 21.7 20.1 19.2 86 1.6 NNE 26 30 14 16 - - 45.6
03/02:00pm 21.5 20.0 19.4 88 1.3 NNE 26 28 14 15 - - 45.6
03/01:50pm 21.1 19.4 18.9 87 1.4 NNE 26 28 14 15 - - 45.6
03/01:40pm 20.9 18.6 18.5 86 1.5 NNE 28 32 15 17 - - 45.6
03/01:30pm 20.6 18.1 18.1 85 1.6 NNE 28 33 15 18 - - 45.6
03/01:20pm 20.5 19.3 18.5 88 1.2 NE 22 26 12 14 - - 45.6
03/01:10pm 20.3 18.3 19.1 93 0.8 NE 28 32 15 17 - - 45.6
03/01:00pm 20.1 19.0 19.5 96 0.4 NE 24 32 13 17 - - 45.6
03/12:50pm 20.0 19.3 19.4 96 0.4 E 22 24 12 13 - - 45.6
03/12:40pm 19.7 18.8 19.1 96 0.4 ENE 22 26 12 14 - - 45.4
03/12:30pm 19.5 18.2 19.0 97 0.3 E 24 28 13 15 - - 44.4
03/12:20pm 19.1 18.6 18.7 98 0.2 ESE 19 22 10 12 - - 43.6
03/12:10pm 18.8 19.7 18.4 98 0.2 SE 11 15 6 8 - - 42.8
03/12:00pm 18.6 20.2 18.2 97 0.2 SW 7 11 4 6 - - 41.4
03/11:50am 18.6 20.2 18.2 97 0.2 W 7 13 4 7 - - 36.8
03/11:40am 18.6 20.4 18.2 97 0.2 SE 6 9 3 5 - - 33.0
03/11:30am 18.6 19.8 18.2 97 0.2 ESE 9 13 5 7 - - 28.8
03/11:20am 18.6 20.2 18.2 97 0.2 SE 7 11 4 6 - - 24.8
03/11:10am 18.6 19.4 18.1 97 0.3 SSE 11 13 6 7 - - 21.2
03/11:00am 18.6 19.4 18.1 97 0.3 SSE 11 13 6 7 - - 17.6
03/10:50am 18.5 18.9 18.1 97 0.2 SE 13 15 7 8 - - 15.4
03/10:40am 18.5 19.3 18.1 97 0.2 SSE 11 15 6 8 - - 13.4
03/10:30am 18.5 19.3 18.2 98 0.2 SE 11 13 6 7 - - 11.8
03/10:20am 18.6 19.8 18.2 97 0.2 SE 9 13 5 7 - - 8.4
03/10:10am 18.5 19.7 18.2 98 0.2 SE 9 11 5 6 - - 7.2
03/10:00am 18.5 19.3 18.1 97 0.2 ESE 11 15 6 8 - - 6.0
03/09:50am 18.5 18.9 18.1 97 0.2 ESE 13 15 7 8 - - 4.2
03/09:40am 18.5 18.9 18.1 97 0.2 ESE 13 15 7 8 - - 3.2
03/09:30am 18.5 18.5 18.1 97 0.2 E 15 19 8 10 - - 2.4
03/09:20am 18.5 18.9 18.2 98 0.2 ESE 13 17 7 9 - - 1.4
03/09:10am 18.5 18.9 18.1 97 0.2 ESE 13 15 7 8 - - 0.6
03/09:00am 18.4 18.4 18.0 97 0.2 ESE 15 19 8 10 - - 34.0
03/08:50am 18.5 18.9 18.1 97 0.2 E 13 15 7 8 - - 33.6
03/08:40am 18.5 19.3 18.1 97 0.2 ESE 11 13 6 7 - - 33.2
03/08:30am 18.5 19.6 18.1 97 0.2 ESE 9 11 5 6 - - 32.8
03/08:20am 18.5 19.6 18.0 97 0.3 ESE 9 11 5 6 - - 32.6
03/08:10am 18.5 19.6 18.1 97 0.2 ESE 9 11 5 6 - - 32.4
03/08:00am 18.4 19.5 18.0 97 0.2 ESE 9 11 5 6 - - 32.2
03/07:50am 18.4 19.5 17.9 97 0.3 ESE 9 11 5 6 - - 32.0
03/07:40am 18.4 19.4 17.8 96 0.4 SE 9 9 5 5 - - 32.0
03/07:30am 18.4 19.8 17.8 96 0.4 ESE 7 9 4 5 - - 31.8
03/07:20am 18.5 19.9 17.9 96 0.4 ESE 7 9 4 5 - - 31.4
03/07:10am 18.8 19.9 18.0 95 0.5 E 9 11 5 6 - - 31.4
03/07:00am 18.9 19.6 18.0 94 0.6 E 11 11 6 6 - - 31.2
03/06:50am 18.9 19.6 18.0 94 0.6 ENE 11 13 6 7 - - 31.0
03/06:40am 18.9 20.0 18.0 94 0.6 E 9 11 5 6 - - 30.8
03/06:30am 19.0 19.3 18.0 94 0.6 ENE 13 15 7 8 - - 30.8
03/06:20am 19.1 19.0 17.9 93 0.7 E 15 17 8 9 - - 30.8
03/06:10am 19.1 19.4 17.8 92 0.8 ENE 13 17 7 9 - - 30.6
03/06:00am 19.0 20.1 17.9 93 0.7 ENE 9 11 5 6 - - 30.6
03/05:50am 18.9 20.0 17.9 94 0.6 ENE 9 11 5 6 - - 30.6
03/05:40am 18.8 19.8 17.8 94 0.6 ENE 9 11 5 6 - - 30.4
03/05:30am 18.7 19.8 17.9 95 0.5 ENE 9 13 5 7 - - 30.4
03/05:20am 18.5 19.5 17.8 96 0.4 E 9 9 5 5 - - 30.4
03/05:10am 18.4 19.0 17.6 95 0.5 E 11 13 6 7 - - 30.4
03/05:00am 18.2 18.7 17.4 95 0.5 E 11 13 6 7 - - 30.4
03/04:50am 18.2 19.4 17.3 94 0.5 ESE 7 9 4 5 - - 30.2
03/04:40am 18.2 19.5 17.1 93 0.7 ESE 6 9 3 5 - - 29.8
03/04:30am 18.2 19.9 17.1 93 0.7 S 4 7 2 4 - - 29.6
03/04:20am 18.3 19.4 17.2 93 0.7 S 7 11 4 6 - - 29.4
03/04:10am 18.6 19.7 17.2 91 0.8 S 7 9 4 5 - - 29.4
03/04:00am 18.5 19.8 17.2 92 0.8 SSW 6 9 3 5 - - 29.4
03/03:50am 18.3 19.6 17.1 93 0.7 S 6 9 3 5 - - 29.4
03/03:40am 18.3 19.0 17.1 93 0.7 SE 9 9 5 5 - - 29.4
03/03:30am 18.3 19.4 17.1 93 0.7 SE 7 9 4 5 - - 29.4
03/03:20am 18.3 19.0 17.1 93 0.7 ESE 9 9 5 5 - - 29.4
03/03:10am 18.4 19.5 17.1 92 0.8 ESE 7 9 4 5 - - 29.4
03/03:00am 18.5 19.6 17.1 91 0.8 SE 7 7 4 4 - - 29.4
03/02:50am 18.7 19.8 17.2 91 0.9 SE 7 9 4 5 - - 29.4
03/02:40am 18.9 20.0 17.2 90 1.0 SE 7 9 4 5 - - 29.4
03/02:30am 18.9 19.7 17.2 90 1.0 SE 9 9 5 5 - - 29.4
03/02:20am 19.0 19.8 17.2 89 1.1 SE 9 9 5 5 - - 29.4
03/02:10am 19.0 19.8 17.2 89 1.1 SE 9 11 5 6 - - 29.4
03/02:00am 19.0 19.8 17.2 89 1.1 SE 9 11 5 6 - - 29.4
03/01:50am 19.0 19.8 17.3 90 1.0 SE 9 9 5 5 - - 29.4
03/01:40am 19.0 19.4 17.3 90 1.0 SE 11 11 6 6 - - 29.4
03/01:30am 19.1 19.5 17.3 89 1.1 ESE 11 11 6 6 - - 29.4
03/01:20am 19.1 19.5 17.3 89 1.1 ESE 11 13 6 7 - - 29.4
03/01:10am 19.1 19.5 17.3 89 1.1 SE 11 13 6 7 - - 29.4
03/01:00am 19.1 19.9 17.4 90 1.0 SE 9 11 5 6 - - 29.4
03/12:50am 19.0 19.8 17.4 90 1.0 SE 9 9 5 5 - - 29.4
03/12:40am 18.9 20.1 17.3 90 1.0 SE 7 9 4 5 - - 29.4
03/12:30am 18.7 19.9 17.3 91 0.9 SSE 7 9 4 5 - - 29.4
03/12:20am 18.7 20.0 17.2 91 0.9 S 6 7 3 4 - - 29.4
03/12:10am 18.8 20.1 17.2 90 1.0 S 6 7 3 4 - - 29.4
03/12:00am 18.9 20.0 17.2 90 1.0 S 7 9 4 5 - - 29.4
 
Date/Time
WST
Temp
°C
App
Temp
°C
Dew
Point
°C
Rel
Hum
%
Delta-T
°C
Wind Press
QNH
hPa
Press
MSL
hPa
Rain since
9am
mm
Dir  Spd
km/h
Gust
km/h
Spd
kts
Gust
kts
02/11:50pm 19.1 20.2 17.1 88 1.2 SSE 7 9 4 5 - - 29.4
02/11:40pm 19.0 20.1 17.1 89 1.2 SSE 7 7 4 4 - - 29.4
02/11:30pm 19.0 20.3 17.1 89 1.2 SSE 6 7 3 4 - - 29.4
02/11:20pm 19.0 20.3 17.1 89 1.2 SSE 6 7 3 4 - - 29.4
02/11:10pm 19.0 20.3 17.1 89 1.2 SSE 6 6 3 3 - - 29.4
02/11:00pm 19.0 20.3 17.0 88 1.2 SSE 6 7 3 4 - - 29.4
02/10:50pm 18.8 20.1 17.0 89 1.1 SSE 6 7 3 4 - - 29.4
02/10:40pm 18.7 20.3 17.0 90 1.0 SSE 4 6 2 3 - - 29.4
02/10:30pm 18.6 19.8 16.9 90 1.0 S 6 6 3 3 - - 29.4
02/10:20pm 18.3 19.5 16.8 91 0.9 SSE 6 7 3 4 - - 29.4
02/10:10pm 17.8 18.9 16.7 93 0.7 S 6 6 3 3 - - 29.4
02/10:00pm 17.5 18.5 16.4 93 0.7 S 6 7 3 4 - - 29.4
02/09:50pm 17.5 18.9 16.4 93 0.7 S 4 6 2 3 - - 29.4
02/09:40pm 17.4 18.7 16.2 93 0.7 SSW 4 4 2 2 - - 29.4
02/09:30pm 17.3 18.9 16.0 92 0.8 S 2 4 1 2 - - 29.4
02/09:20pm 17.4 18.2 15.9 91 0.9 S 6 7 3 4 - - 29.4
02/09:10pm 17.4 18.2 15.8 90 0.9 S 6 7 3 4 - - 29.4
02/09:00pm 17.5 18.2 15.6 89 1.1 SSW 6 7 3 4 - - 29.4
02/08:50pm 17.7 18.4 15.5 87 1.3 SW 6 6 3 3 - - 29.4
02/08:40pm 17.6 18.2 15.4 87 1.3 S 6 6 3 3 - - 29.4
02/08:30pm 17.5 18.1 15.4 87 1.2 S 6 6 3 3 - - 29.4
02/08:20pm 17.5 18.1 15.2 86 1.3 S 6 7 3 4 - - 29.4
02/08:10pm 17.5 17.9 15.2 86 1.3 S 7 11 4 6 - - 29.4
02/08:00pm 17.3 17.4 15.4 88 1.1 S 9 11 5 6 - - 29.4
02/07:50pm 17.1 17.1 15.3 89 1.0 SSW 9 9 5 5 - - 29.4
02/07:40pm 17.2 16.9 15.4 89 1.1 SSW 11 15 6 8 - - 29.4
02/07:30pm 17.1 16.8 15.5 90 0.9 SSW 11 15 6 8 - - 29.4
02/07:20pm 17.2 17.1 15.9 92 0.8 S 11 13 6 7 - - 29.2
02/07:10pm 17.3 17.2 16.0 92 0.8 S 11 13 6 7 - - 29.2
02/07:00pm 17.2 17.3 15.5 90 1.0 SSW 9 13 5 7 - - 28.8
02/06:50pm 17.4 17.7 15.9 91 0.9 SSW 9 13 5 7 - - 28.0
02/06:40pm 17.6 17.6 16.2 91 0.8 SW 11 15 6 8 - - 27.2
02/06:30pm 17.7 16.5 16.1 90 0.9 WSW 17 19 9 10 - - 26.2
02/06:20pm 17.9 17.6 15.5 86 1.4 W 11 19 6 10 - - 25.4
02/06:10pm 17.4 18.0 15.4 88 1.2 SW 6 9 3 5 - - 25.0
02/06:00pm 17.6 16.6 15.6 88 1.2 ESE 15 22 8 12 - - 23.8
02/05:50pm 17.6 15.0 15.8 89 1.1 ESE 24 32 13 17 - - 17.4
02/05:40pm 18.8 16.3 16.2 85 1.6 ENE 24 32 13 17 - - 10.0
02/05:30pm 21.2 19.7 17.8 81 2.1 E 22 32 12 17 - - 5.6
02/05:20pm 25.4 25.5 16.5 58 5.5 E 11 13 6 7 - - 0.0
02/05:10pm 25.5 25.3 16.6 58 5.5 E 13 17 7 9 - - 0.0
02/05:00pm 25.5 24.8 16.5 57 5.5 E 15 17 8 9 - - 0.0
02/04:50pm 25.5 25.2 16.5 57 5.5 ESE 13 17 7 9 - - 0.0
02/04:40pm 25.7 25.3 16.3 56 5.8 ESE 13 15 7 8 - - 0.0
02/04:30pm 25.8 25.3 16.8 57 5.6 E 15 17 8 9 - - 0.0
02/04:20pm 25.8 25.0 16.2 55 5.9 E 15 17 8 9 - - 0.0
02/04:10pm 25.8 25.0 16.0 54 6.0 E 15 19 8 10 - - 0.0
02/04:00pm 25.8 25.4 16.2 55 5.9 E 13 17 7 9 - - 0.0
02/03:50pm 26.3 25.5 16.2 53 6.2 - 15 19 8 10 - - 0.0
02/03:40pm 26.5 25.5 16.7 55 6.1 E 17 22 9 12 - - 0.0
02/03:30pm 26.7 26.1 16.7 54 6.2 E 15 19 8 10 - - 0.0
02/03:20pm 26.6 25.6 16.7 54 6.1 E 17 20 9 11 - - 0.0
02/03:10pm 26.2 25.2 16.6 55 5.9 E 17 20 9 11 - - 0.0
02/03:00pm 26.2 24.8 16.5 55 6.0 E 19 24 10 13 - - 0.0
02/02:50pm 26.3 25.8 17.8 59 5.4 E 17 22 9 12 - - 0.0
02/02:40pm 26.2 24.6 16.1 53 6.2 E 19 22 10 12 - - 0.0
02/02:30pm 25.8 24.7 16.3 55 5.8 E 17 20 9 11 - - 0.0
02/02:20pm 25.6 25.2 16.2 56 5.8 ESE 13 19 7 10 - - 0.0
02/02:10pm 26.0 25.5 17.0 57 5.6 E 15 17 8 9 - - 0.0
02/02:00pm 26.0 25.3 16.5 55 5.9 E 15 19 8 10 - - 0.0
02/01:50pm 25.7 24.5 17.0 58 5.4 ENE 19 22 10 12 - - 0.0
02/01:40pm 25.6 24.4 16.1 55 5.8 E 17 20 9 11 - - 0.0
02/01:30pm 25.4 24.4 16.5 58 5.5 ENE 17 22 9 12 - - 0.0
02/01:20pm 25.4 25.3 17.0 59 5.2 E 13 17 7 9 - - 0.0
02/01:10pm 24.6 24.3 17.3 64 4.5 ESE 15 20 8 11 - - 0.0
02/01:00pm 24.4 24.4 17.3 64 4.4 ESE 13 17 7 9 - - 0.0
02/12:50pm 24.3 23.5 16.1 60 5.0 ESE 15 19 8 10 - - 0.0
02/12:40pm 24.4 23.6 16.1 60 5.1 - 15 19 8 10 - - 0.0
02/12:30pm 24.1 22.6 16.4 62 4.7 E 19 20 10 11 - - 0.0
02/12:20pm 23.6 22.8 16.1 62 4.6 E 15 19 8 10 - - 0.0
02/12:10pm 23.2 22.7 16.9 67 3.9 E 15 19 8 10 - - 0.0
02/12:00pm 23.5 23.0 16.8 66 4.1 ESE 15 24 8 13 - - 0.0
02/11:50am 23.5 23.0 16.8 66 4.1 ESE 15 17 8 9 - - 0.0
02/11:40am 23.3 22.7 16.6 66 4.1 ESE 15 19 8 10 - - 0.0
02/11:30am 23.0 22.8 17.5 71 3.4 E 15 19 8 10 - - 0.0
02/11:20am 23.0 22.0 16.6 67 3.9 E 17 20 9 11 - - 0.0
02/11:10am 22.7 22.0 16.4 67 3.8 E 15 19 8 10 - - 0.0
02/11:00am 22.4 21.5 15.9 66 3.9 ESE 15 19 8 10 - - 0.0
02/10:50am 22.4 21.9 16.8 70 3.4 E 15 19 8 10 - - 0.0
02/10:40am 22.4 21.3 16.4 69 3.6 E 17 20 9 11 - - 0.0
02/10:30am 22.2 21.6 16.7 71 3.4 E 15 20 8 11 - - 0.0
02/10:20am 22.0 21.7 16.5 71 3.3 ESE 13 15 7 8 - - 0.0
02/10:10am 21.3 21.2 17.0 76 2.6 E 13 17 7 9 - - 0.0
02/10:00am 21.0 19.8 16.2 74 2.9 E 17 19 9 10 - - 0.0
02/09:50am 20.8 19.5 15.8 73 3.0 E 17 22 9 12 - - 0.0
02/09:40am 20.7 20.1 16.6 77 2.5 E 15 17 8 9 - - 0.0
02/09:30am 20.2 20.0 16.7 80 2.1 ESE 13 17 7 9 - - 0.0
02/09:20am 19.9 19.7 16.8 82 1.9 E 13 17 7 9 - - 0.0
02/09:10am 19.5 18.6 15.9 80 2.1 ESE 15 17 8 9 - - 0.0
02/09:00am 19.0 18.2 16.0 83 1.8 ESE 15 19 8 10 - - 17.0
02/08:50am 18.9 18.1 16.2 84 1.6 ESE 15 19 8 10 - - 17.0
02/08:40am 18.6 17.8 16.1 85 1.5 ESE 15 17 8 9 - - 17.0
02/08:30am 18.6 17.4 16.2 86 1.4 ESE 17 19 9 10 - - 17.0
02/08:20am 18.9 18.3 16.6 86 1.4 ESE 15 19 8 10 - - 17.0
02/08:10am 18.2 17.8 16.3 89 1.1 ESE 13 15 7 8 - - 17.0
02/08:00am 17.8 17.5 16.4 91 0.8 E 13 17 7 9 - - 17.0
02/07:50am 17.6 17.2 16.2 91 0.8 ESE 13 19 7 10 - - 17.0
02/07:40am 17.6 17.3 16.4 93 0.7 ESE 13 17 7 9 - - 17.0
02/07:30am 17.8 17.9 16.5 92 0.8 E 11 13 6 7 - - 17.0
02/07:20am 17.2 17.2 16.3 94 0.5 ESE 11 15 6 8 - - 17.0
02/07:10am 16.7 16.3 16.1 96 0.4 ESE 13 17 7 9 - - 17.0
02/07:00am 16.6 16.1 16.0 96 0.4 ESE 13 17 7 9 - - 17.0
02/06:50am 16.6 15.8 16.1 97 0.3 ESE 15 17 8 9 - - 17.0
02/06:40am 16.5 16.0 15.9 96 0.4 SE 13 17 7 9 - - 17.0
02/06:30am 16.4 16.7 15.9 97 0.3 SE 9 11 5 6 - - 17.0
02/06:20am 16.4 17.0 15.8 96 0.4 E 7 11 4 6 - - 16.8
02/06:10am 16.4 15.5 15.8 96 0.4 - 15 19 8 10 - - 16.6
02/06:00am 16.4 15.1 15.7 96 0.4 ESE 17 19 9 10 - - 16.4
02/05:50am 16.4 15.0 15.6 95 0.5 SE 17 19 9 10 - - 16.0
02/05:40am 16.3 15.3 15.5 95 0.5 SE 15 19 8 10 - - 16.0
02/05:30am 16.2 16.0 15.6 96 0.4 SE 11 15 6 8 - - 16.0
02/05:20am 16.2 16.0 15.6 96 0.4 SE 11 13 6 7 - - 15.8
02/05:10am 16.3 16.4 15.6 96 0.4 ESE 9 11 5 6 - - 15.8
02/05:00am 16.3 16.1 15.6 96 0.4 ESE 11 11 6 6 - - 15.8
02/04:50am 16.3 16.0 15.4 94 0.5 E 11 13 6 7 - - 15.8
02/04:40am 16.4 15.7 15.4 94 0.6 E 13 17 7 9 - - 15.8
02/04:30am 16.5 15.5 15.5 94 0.6 E 15 19 8 10 - - 15.6
02/04:20am 16.6 15.5 15.4 93 0.7 E 15 20 8 11 - - 15.6
02/04:10am 16.7 15.7 15.5 93 0.7 E 15 15 8 8 - - 15.4
02/04:00am 16.9 15.5 15.5 91 0.8 E 17 19 9 10 - - 15.4
02/03:50am 17.0 15.5 15.4 90 0.9 E 17 20 9 11 - - 15.2
02/03:40am 17.1 16.0 15.3 89 1.0 E 15 20 8 11 - - 15.2
02/03:30am 17.0 16.3 15.3 90 1.0 E 13 15 7 8 - - 15.2
02/03:20am 17.0 16.6 15.3 90 1.0 E 11 13 6 7 - - 15.2
02/03:10am 17.0 16.3 15.4 90 0.9 E 13 15 7 8 - - 15.2
02/03:00am 16.9 15.8 15.3 90 0.9 E 15 17 8 9 - - 15.2
02/02:50am 16.9 15.4 15.4 91 0.9 E 17 19 9 10 - - 15.2
02/02:40am 16.8 15.7 15.4 91 0.8 E 15 17 8 9 - - 15.2
02/02:30am 16.8 15.8 15.5 92 0.8 E 15 17 8 9 - - 15.2
02/02:20am 16.8 15.8 15.5 92 0.8 E 15 17 8 9 - - 15.2
02/02:10am 16.8 15.4 15.5 92 0.8 E 17 20 9 11 - - 15.2
02/02:00am 16.9 15.4 15.4 91 0.9 E 17 19 9 10 - - 15.2
02/01:50am 16.9 15.8 15.4 91 0.9 E 15 19 8 10 - - 15.2
02/01:40am 17.0 15.9 15.3 90 1.0 E 15 19 8 10 - - 15.2
02/01:30am 16.9 16.1 15.2 90 1.0 E 13 17 7 9 - - 15.2
02/01:20am 16.9 15.4 15.2 90 1.0 E 17 19 9 10 - - 15.2
02/01:10am 16.9 16.1 15.2 90 1.0 E 13 15 7 8 - - 15.2
02/01:00am 16.9 15.7 15.0 88 1.1 E 15 19 8 10 - - 15.2
02/12:50am 16.9 16.4 15.0 88 1.1 E 11 15 6 8 - - 15.2
02/12:40am 17.0 16.5 14.9 87 1.2 E 11 15 6 8 - - 15.2
02/12:30am 17.0 16.5 14.9 87 1.2 E 11 13 6 7 - - 15.2
02/12:20am 17.0 16.1 14.9 87 1.2 ESE 13 17 7 9 - - 15.2
02/12:10am 17.0 15.8 15.0 88 1.2 E 15 19 8 10 - - 15.2
02/12:00am 17.0 15.7 14.9 87 1.2 E 15 17 8 9 - - 15.2
 
Date/Time
WST
Temp
°C
App
Temp
°C
Dew
Point
°C
Rel
Hum
%
Delta-T
°C
Wind Press
QNH
hPa
Press
MSL
hPa
Rain since
9am
mm
Dir  Spd
km/h
Gust
km/h
Spd
kts
Gust
kts
01/11:50pm 17.0 15.8 15.0 88 1.2 ESE 15 17 8 9 - - 15.2
01/11:40pm 17.0 15.8 15.0 88 1.2 ESE 15 17 8 9 - - 15.2
01/11:30pm 17.0 16.2 15.2 89 1.0 ESE 13 17 7 9 - - 15.2
01/11:20pm 17.1 16.4 15.3 89 1.0 E 13 17 7 9 - - 15.2
01/11:10pm 17.0 15.9 15.2 89 1.0 ESE 15 17 8 9 - - 15.2
01/11:00pm 17.0 15.9 15.4 90 0.9 E 15 17 8 9 - - 15.2
01/10:50pm 17.0 16.3 15.5 91 0.9 ESE 13 17 7 9 - - 15.2
01/10:40pm 17.0 16.4 15.7 92 0.8 ESE 13 13 7 7 - - 15.2
01/10:30pm 17.0 16.0 15.6 91 0.8 ESE 15 17 8 9 - - 15.2
01/10:20pm 17.0 16.4 15.6 91 0.8 ESE 13 15 7 8 - - 15.2
01/10:10pm 17.0 16.0 15.6 91 0.8 ESE 15 17 8 9 - - 15.2
01/10:00pm 16.9 15.5 15.6 92 0.8 ESE 17 20 9 11 - - 15.2
01/09:50pm 17.0 16.0 15.5 91 0.9 ESE 15 24 8 13 - - 15.2
01/09:40pm 16.9 16.2 15.5 91 0.8 E 13 15 7 8 - - 15.2
01/09:30pm 16.8 16.5 15.5 92 0.8 E 11 15 6 8 - - 15.0
01/09:20pm 16.8 17.0 15.7 93 0.6 ESE 9 13 5 7 - - 14.8
01/09:10pm 16.7 16.5 15.7 94 0.6 ESE 11 13 6 7 - - 14.8
01/09:00pm 16.7 16.1 15.6 93 0.6 SE 13 15 7 8 - - 14.6
01/08:50pm 16.6 15.6 15.6 94 0.6 ESE 15 19 8 10 - - 14.6
01/08:40pm 16.6 15.2 15.6 94 0.6 ESE 17 20 9 11 - - 14.0
01/08:30pm 16.7 14.9 15.6 93 0.6 ESE 19 24 10 13 - - 13.2
01/08:20pm 16.7 15.7 15.6 93 0.6 ESE 15 19 8 10 - - 12.8
01/08:10pm 16.7 16.1 15.6 93 0.6 ESE 13 17 7 9 - - 12.6
01/08:00pm 16.7 15.7 15.5 93 0.7 ESE 15 19 8 10 - - 12.6
01/07:50pm 16.6 14.6 15.4 93 0.7 ESE 20 24 11 13 - - 12.6
01/07:40pm 16.5 15.1 15.5 94 0.6 ESE 17 19 9 10 - - 12.6
01/07:30pm 16.4 15.4 15.6 95 0.5 ESE 15 22 8 12 - - 12.6
01/07:20pm 16.4 14.6 15.5 94 0.5 ESE 19 22 10 12 - - 12.6
01/07:10pm 16.4 14.6 15.5 94 0.5 ESE 19 22 10 12 - - 12.6
01/07:00pm 16.4 14.6 15.6 95 0.5 ESE 19 20 10 11 - - 12.6
01/06:50pm 16.4 14.6 15.6 95 0.5 ESE 19 20 10 11 - - 12.6
01/06:40pm 16.4 14.6 15.6 95 0.5 ESE 19 22 10 12 - - 12.6
01/06:30pm 16.4 14.6 15.6 95 0.5 ESE 19 20 10 11 - - 12.4
01/06:20pm 16.5 15.1 15.6 94 0.5 ESE 17 19 9 10 - - 12.4
01/06:10pm 16.5 15.5 15.7 95 0.5 ESE 15 15 8 8 - - 12.0
01/06:00pm 16.6 15.6 15.7 94 0.5 ESE 15 17 8 9 - - 11.6
01/05:50pm 16.7 16.0 15.5 93 0.7 ESE 13 15 7 8 - - 11.2
01/05:40pm 16.8 16.1 15.5 92 0.8 E 13 17 7 9 - - 10.8
01/05:30pm 16.7 16.0 15.5 93 0.7 E 13 19 7 10 - - 10.6
01/05:20pm 16.7 15.7 15.7 94 0.6 E 15 17 8 9 - - 10.6
01/05:10pm 16.7 15.8 15.8 94 0.5 E 15 19 8 10 - - 10.6
01/05:00pm 16.7 15.8 15.9 95 0.5 - 15 17 8 9 - - 10.4
01/04:50pm 16.7 15.8 15.8 94 0.5 ESE 15 17 8 9 - - 10.0
01/04:40pm 16.8 16.3 15.8 94 0.6 SE 13 15 7 8 - - 10.0
01/04:30pm 16.8 15.8 15.7 93 0.6 SE 15 17 8 9 - - 9.8
01/04:20pm 16.8 15.8 15.6 93 0.7 SE 15 17 8 9 - - 9.8
01/04:10pm 16.8 15.8 15.6 93 0.7 SE 15 17 8 9 - - 9.8
01/04:00pm 16.8 15.8 15.7 93 0.6 SE 15 17 8 9 - - 9.8
01/03:50pm 16.7 15.7 15.7 94 0.6 SE 15 19 8 10 - - 9.8
01/03:40pm 16.7 15.7 15.7 94 0.6 SE 15 17 8 9 - - 9.8
01/03:30pm 16.6 15.7 15.8 95 0.5 SE 15 17 8 9 - - 9.8
01/03:20pm 16.7 15.8 15.8 94 0.5 SE 15 17 8 9 - - 9.6
01/03:10pm 16.5 15.9 15.7 95 0.5 SE 13 15 7 8 - - 9.6
01/03:00pm 16.5 15.9 15.6 94 0.5 ESE 13 15 7 8 - - 9.6
01/02:50pm 16.5 15.5 15.6 94 0.5 ESE 15 15 8 8 - - 9.6
01/02:40pm 16.5 15.5 15.5 94 0.6 ESE 15 15 8 8 - - 9.6
01/02:30pm 16.6 16.0 15.7 94 0.5 SE 13 19 7 10 - - 9.6
01/02:20pm 16.8 16.8 16.2 96 0.4 SE 11 13 6 7 - - 9.6
01/02:10pm 16.7 16.7 16.2 97 0.3 SE 11 11 6 6 - - 9.6
01/02:00pm 16.6 16.5 16.0 96 0.4 SE 11 11 6 6 - - 9.6
01/01:50pm 16.5 16.7 15.8 96 0.4 SE 9 11 5 6 - - 9.6
01/01:40pm 16.4 16.2 15.7 96 0.4 SE 11 13 6 7 - - 9.4
01/01:30pm 16.3 16.1 15.6 96 0.4 SE 11 11 6 6 - - 9.2
01/01:20pm 16.2 15.9 15.5 96 0.4 SE 11 15 6 8 - - 9.2
01/01:10pm 16.2 15.9 15.5 96 0.4 SSE 11 13 6 7 - - 9.2
01/01:00pm 16.2 15.9 15.4 95 0.5 SE 11 13 6 7 - - 8.8
01/12:50pm 16.1 15.7 15.2 94 0.5 SSE 11 13 6 7 - - 8.0
01/12:40pm 16.1 15.7 15.1 94 0.6 SE 11 13 6 7 - - 7.4
01/12:30pm 16.0 15.5 15.0 94 0.6 SE 11 13 6 7 - - 7.2
01/12:20pm 15.9 15.1 15.0 94 0.5 SE 13 15 7 8 - - 7.2
01/12:10pm 15.8 14.9 14.9 94 0.5 SE 13 17 7 9 - - 6.8
01/12:00pm 15.9 15.3 14.7 93 0.7 SE 11 13 6 7 - - 6.2
01/11:50am 15.9 15.7 14.7 93 0.7 ESE 9 11 5 6 - - 5.2
01/11:40am 16.0 14.7 14.9 93 0.6 ESE 15 17 8 9 - - 5.2
01/11:30am 16.1 14.5 15.1 94 0.6 ESE 17 19 9 10 - - 5.2
01/11:20am 16.1 15.0 15.3 95 0.5 ESE 15 20 8 11 - - 5.0
01/11:10am 15.8 14.2 15.0 95 0.5 ESE 17 19 9 10 - - 5.0
01/11:00am 15.7 14.4 14.8 94 0.5 ESE 15 19 8 10 - - 5.0
01/10:50am 15.5 14.5 14.6 94 0.5 SE 13 17 7 9 - - 5.0
01/10:40am 15.3 14.7 14.5 95 0.5 SE 11 13 6 7 - - 4.8
01/10:30am 15.3 14.6 14.4 94 0.5 SSE 11 15 6 8 - - 4.4
01/10:20am 15.3 15.5 14.2 93 0.6 SSE 6 9 3 5 - - 4.0
01/10:10am 15.4 16.0 14.2 92 0.7 SSE 4 6 2 3 - - 3.2
01/10:00am 15.4 15.4 14.2 92 0.7 W 7 13 4 7 - - 2.4
01/09:50am 15.3 14.9 14.1 92 0.7 SSW 9 11 5 6 - - 2.2
01/09:40am 15.2 14.4 14.0 92 0.7 SSE 11 17 6 9 - - 2.2
01/09:30am 15.1 13.9 14.0 93 0.6 SSE 13 17 7 9 - - 2.2
01/09:20am 15.0 13.4 14.0 94 0.6 SSE 15 17 8 9 - - 1.8
01/09:10am 15.1 14.3 14.1 94 0.6 ESE 11 15 6 8 - - 0.2
01/09:00am 15.1 15.0 14.0 93 0.6 SE 7 11 4 6 - - 7.8
01/08:50am 15.0 13.8 14.0 94 0.6 SE 13 17 7 9 - - 7.6
01/08:40am 15.0 13.4 14.0 94 0.6 SE 15 17 8 9 - - 7.6
01/08:30am 15.0 13.8 14.0 94 0.6 SE 13 15 7 8 - - 7.4
01/08:20am 15.0 13.8 13.9 93 0.6 SE 13 17 7 9 - - 7.2
01/08:10am 15.1 14.7 14.0 93 0.6 SE 9 9 5 5 - - 6.6
01/08:00am 15.1 15.0 13.9 92 0.7 SSE 7 11 4 6 - - 6.4
01/07:50am 15.1 13.8 13.8 92 0.7 SSE 13 15 7 8 - - 6.0
01/07:40am 15.1 15.2 13.9 92 0.7 SSE 6 9 3 5 - - 5.6
01/07:30am 15.1 14.3 13.9 92 0.7 SSE 11 13 6 7 - - 5.4
01/07:20am 15.0 13.0 13.9 93 0.6 SSE 17 19 9 10 - - 5.2
01/07:10am 15.1 14.3 14.0 93 0.6 SE 11 13 6 7 - - 5.0
01/07:00am 15.1 14.2 13.8 92 0.7 SE 11 11 6 6 - - 4.6
01/06:50am 15.1 14.6 13.8 92 0.7 SE 9 11 5 6 - - 4.2
01/06:40am 15.2 15.1 13.9 92 0.7 SE 7 7 4 4 - - 3.2
01/06:30am 15.3 15.4 13.8 91 0.8 SE 6 7 3 4 - - 2.2
01/06:20am 15.3 15.1 13.7 90 0.9 SE 7 7 4 4 - - 2.0
01/06:10am 15.3 15.1 13.6 90 1.0 SE 7 7 4 4 - - 1.6
01/06:00am 15.3 15.1 13.5 89 1.0 SE 7 7 4 4 - - 1.4
01/05:50am 15.3 15.1 13.6 90 1.0 SE 7 9 4 5 - - 1.4
01/05:40am 15.4 15.1 13.4 88 1.1 SE 7 9 4 5 - - 1.2
01/05:30am 15.6 15.0 13.4 87 1.2 SE 9 9 5 5 - - 0.8
01/05:20am 15.8 14.8 13.3 85 1.4 ESE 11 13 6 7 - - 0.4
01/05:10am 15.9 14.7 12.8 82 1.7 ESE 11 13 6 7 - - 0.2
01/05:00am 16.1 14.9 12.7 80 1.9 ESE 11 13 6 7 - - 0.0
01/04:50am 16.3 14.9 12.3 77 2.2 ESE 11 13 6 7 - - 0.0
01/04:40am 16.3 14.8 12.0 75 2.3 ESE 11 13 6 7 - - 0.0
01/04:30am 16.3 14.5 12.0 75 2.3 SE 13 15 7 8 - - 0.0
01/04:20am 16.2 14.4 12.0 76 2.3 SE 13 17 7 9 - - 0.0
01/04:10am 16.1 14.7 12.2 77 2.1 SE 11 15 6 8 - - 0.0
01/04:00am 16.3 14.9 12.3 77 2.2 SE 11 15 6 8 - - 0.0
01/03:50am 16.5 14.2 11.7 73 2.6 SE 15 20 8 11 - - 0.0
01/03:40am 16.5 13.8 11.7 73 2.6 SE 17 20 9 11 - - 0.0
01/03:30am 16.4 13.3 11.6 73 2.6 SE 19 22 10 12 - - 0.0
01/03:20am 16.4 13.1 11.6 73 2.6 SE 20 24 11 13 - - 0.0
01/03:10am 16.5 13.4 11.6 73 2.7 SE 19 20 10 11 - - 0.0
01/03:00am 16.5 13.8 11.6 73 2.7 SE 17 19 9 10 - - 0.0
01/02:50am 16.5 13.8 11.7 73 2.6 ESE 17 19 9 10 - - 0.0
01/02:40am 16.6 13.9 11.7 73 2.7 SE 17 19 9 10 - - 0.0
01/02:30am 16.6 13.9 11.7 73 2.7 ESE 17 17 9 9 - - 0.0
01/02:20am 16.6 13.9 11.6 72 2.7 SE 17 19 9 10 - - 0.0
01/02:10am 16.7 14.0 11.6 72 2.8 SE 17 19 9 10 - - 0.0
01/02:00am 16.8 14.5 11.6 71 2.8 SE 15 17 8 9 - - 0.0
01/01:50am 16.9 14.5 11.4 70 3.0 ESE 15 17 8 9 - - 0.0
01/01:40am 17.0 13.9 11.5 70 3.0 SE 19 22 10 12 - - 0.0
01/01:30am 17.1 13.9 11.4 69 3.1 SE 19 22 10 12 - - 0.0
01/01:20am 17.2 13.5 11.4 68 3.1 SE 22 26 12 14 - - 0.0
01/01:10am 17.5 14.3 11.4 67 3.3 SE 19 20 10 11 - - 0.0
01/01:00am 17.6 14.2 11.3 66 3.4 SE 20 24 11 13 - - 0.0
01/12:50am 17.8 15.0 11.3 65 3.5 SE 17 20 9 11 - - 0.0
01/12:40am 17.9 14.7 11.4 65 3.5 SE 19 20 10 11 - - 0.0
01/12:30am 18.1 15.3 11.2 64 3.7 SE 17 20 9 11 - - 0.0
01/12:20am 18.2 14.8 11.3 64 3.8 SE 20 22 11 12 - - 0.0
01/12:10am 18.5 15.3 11.1 62 4.0 SE 19 20 10 11 - - 0.0
01/12:00am 18.6 15.3 10.8 60 4.2 SE 19 22 10 12 - - 0.0
 
Date/Time
WST
Temp
°C
App
Temp
°C
Dew
Point
°C
Rel
Hum
%
Delta-T
°C
Wind Press
QNH
hPa
Press
MSL
hPa
Rain since
9am
mm
Dir  Spd
km/h
Gust
km/h
Spd
kts
Gust
kts
28/11:50pm 18.8 15.4 10.7 59 4.4 SE 19 22 10 12 - - 0.0
28/11:40pm 19.0 15.6 10.5 58 4.6 SE 19 20 10 11 - - 0.0
28/11:30pm 19.1 15.1 10.4 57 4.7 SE 22 24 12 13 - - 0.0
28/11:20pm 19.4 15.8 10.4 56 4.9 SE 20 24 11 13 - - 0.0
28/11:10pm 19.5 15.8 10.2 55 5.0 SE 20 24 11 13 - - 0.0
28/11:00pm 19.7 16.0 10.1 54 5.2 SE 20 24 11 13 - - 0.0
28/10:50pm 19.9 16.2 10.0 53 5.3 SE 20 28 11 15 - - 0.0
28/10:40pm 20.2 16.6 9.9 51 5.5 SE 19 24 10 13 - - 0.0
28/10:30pm 20.5 16.6 9.5 49 5.9 SE 20 26 11 14 - - 0.0
28/10:20pm 20.9 16.6 9.5 48 6.1 SE 22 26 12 14 - - 0.0
28/10:10pm 21.5 17.7 9.1 45 6.6 ESE 19 22 10 12 - - 0.0
28/10:00pm 21.8 17.8 8.9 43 6.9 ESE 20 22 11 12 - - 0.0
28/09:50pm 22.0 18.2 8.9 43 7.0 SE 19 22 10 12 - - 0.0
28/09:40pm 22.2 18.3 8.7 42 7.2 SE 19 22 10 12 - - 0.0
28/09:30pm 22.5 18.9 8.3 40 7.5 SE 17 19 9 10 - - 0.0
28/09:20pm 22.7 18.6 8.0 39 7.7 SE 19 20 10 11 - - 0.0
28/09:10pm 22.9 19.2 7.9 38 7.9 ESE 17 19 9 10 - - 0.0
28/09:00pm 23.0 19.6 7.6 37 8.0 SE 15 17 8 9 - - 0.0
28/08:50pm 23.3 19.5 7.4 36 8.3 SE 17 20 9 11 - - 0.0
28/08:40pm 23.3 19.8 7.4 36 8.3 SE 15 19 8 10 - - 0.0
28/08:30pm 23.4 20.0 7.5 36 8.3 SE 15 19 8 10 - - 0.0

Other formats

Comma delimited format used in spreadsheet applications
http://www.bom.gov.au/fwo/IDW60801/IDW60801.99457.axf

JavaScript Object Notation format (JSON) in row-major order
http://www.bom.gov.au/fwo/IDW60801/IDW60801.99457.json

Data quality

Most of these data are generated automatically and are frequently updated. Quality checks on data are not normally performed. It is possible for incorrect values to appear. Refer to information at About Latest Weather Observations and please check the disclaimer before using these data.